RJAO(METAR)
02/18 15:00
METAR RJAO 180600Z 06010KT 9999 SCT012 SCT150 BKN230 19/14 Q1022 RMK
3CU012 4AC150 A3019 SEA 0.3M SWELL S 0.5M=
戻る
トップページへ戻る
IMOC Co,.Ltd.